createdAt,value
2022-11-26T00:02:25.509Z,26.40
2022-11-26T00:04:55.236Z,26.00
2022-11-26T00:07:26.876Z,23.30
2022-11-26T00:09:56.638Z,24.40
2022-11-26T00:12:31.767Z,23.10
2022-11-26T00:15:15.656Z,21.80
2022-11-26T00:17:44.057Z,22.80
2022-11-26T00:20:12.500Z,24.60
2022-11-26T00:22:46.989Z,34.20
2022-11-26T00:25:21.529Z,30.00
2022-11-26T00:27:52.575Z,26.30
2022-11-26T00:30:23.889Z,24.40
2022-11-26T00:32:53.792Z,25.00
2022-11-26T00:35:23.810Z,23.60
2022-11-26T00:37:57.919Z,23.00
2022-11-26T00:40:30.631Z,25.60
2022-11-26T00:43:01.834Z,26.00
2022-11-26T00:45:31.542Z,24.90
2022-11-26T00:48:01.885Z,24.30
2022-11-26T00:50:36.950Z,25.40
2022-11-26T00:53:06.094Z,24.80
2022-11-26T00:55:42.361Z,24.70
2022-11-26T00:58:26.468Z,30.30
2022-11-26T01:00:59.802Z,29.20
2022-11-26T01:03:28.177Z,28.30
2022-11-26T01:05:59.108Z,27.20
2022-11-26T01:08:35.571Z,28.50
2022-11-26T01:11:05.904Z,28.70
2022-11-26T01:13:34.177Z,27.00
2022-11-26T01:16:42.450Z,28.60
2022-11-26T01:19:15.366Z,30.40
2022-11-26T01:21:44.147Z,29.30
2022-11-26T01:24:12.525Z,28.80
2022-11-26T01:26:43.465Z,29.80
2022-11-26T01:29:17.219Z,31.50
2022-11-26T01:31:46.096Z,32.60
2022-11-26T01:34:14.643Z,32.40
2022-11-26T01:36:43.249Z,33.10
2022-11-26T01:39:19.145Z,31.90
2022-11-26T01:42:06.256Z,32.60
2022-11-26T01:44:36.788Z,32.30
2022-11-26T01:47:29.846Z,31.20
2022-11-26T01:50:29.400Z,32.20
2022-11-26T01:52:59.777Z,30.00
2022-11-26T01:55:41.936Z,29.80
2022-11-26T01:58:15.312Z,31.30
2022-11-26T02:00:44.100Z,30.80
2022-11-26T02:03:12.780Z,29.90
2022-11-26T02:05:49.328Z,31.60
2022-11-26T02:08:18.333Z,29.80
2022-11-26T02:10:46.639Z,28.50
2022-11-26T02:13:14.971Z,30.00
2022-11-26T02:16:01.408Z,30.20
2022-11-26T02:18:36.072Z,28.70
2022-11-26T02:21:18.738Z,29.60
2022-11-26T02:24:31.895Z,26.80
2022-11-26T02:27:21.468Z,29.10
2022-11-26T02:30:11.241Z,27.20
2022-11-26T02:33:02.359Z,27.70
2022-11-26T02:35:45.648Z,29.50
2022-11-26T02:38:21.988Z,28.70
2022-11-26T02:40:52.091Z,28.50
2022-11-26T02:43:20.679Z,27.10
2022-11-26T02:46:09.566Z,27.00
2022-11-26T02:48:44.109Z,27.50
2022-11-26T02:51:23.045Z,26.20
2022-11-26T02:53:52.896Z,27.70
2022-11-26T02:56:27.580Z,26.80
2022-11-26T02:58:57.395Z,25.90
2022-11-26T03:01:52.770Z,25.10
2022-11-26T03:04:26.256Z,27.80
2022-11-26T03:06:58.409Z,25.90
2022-11-26T03:09:26.718Z,25.50
2022-11-26T03:11:55.057Z,24.80
2022-11-26T03:14:23.400Z,24.60
2022-11-26T03:16:51.862Z,25.70
2022-11-26T03:19:20.148Z,22.90
2022-11-26T03:21:48.423Z,22.80
2022-11-26T03:24:16.734Z,23.30
2022-11-26T03:26:44.978Z,23.00
2022-11-26T03:29:13.206Z,24.20
2022-11-26T03:31:41.496Z,22.80
2022-11-26T03:34:09.797Z,22.10
2022-11-26T03:36:38.084Z,23.10
2022-11-26T03:39:06.432Z,21.60
2022-11-26T03:41:34.659Z,22.70
2022-11-26T03:44:03.172Z,21.70
2022-11-26T03:46:32.777Z,21.60
2022-11-26T03:49:01.078Z,21.60
2022-11-26T03:51:29.396Z,21.80
2022-11-26T03:53:57.744Z,21.10
2022-11-26T03:56:26.039Z,22.20
2022-11-26T03:58:54.283Z,23.60
2022-11-26T04:01:23.835Z,23.40
2022-11-26T04:03:52.184Z,22.80
2022-11-26T04:06:20.593Z,21.50
2022-11-26T04:08:48.951Z,20.50
2022-11-26T04:11:17.668Z,20.40
2022-11-26T04:13:45.883Z,21.60
2022-11-26T04:16:14.495Z,22.40
2022-11-26T04:18:43.012Z,22.40
2022-11-26T04:21:11.400Z,20.30
2022-11-26T04:23:39.740Z,19.90
2022-11-26T04:26:07.997Z,20.50
2022-11-26T04:28:36.287Z,19.80
2022-11-26T04:31:04.670Z,20.70
2022-11-26T04:33:33.004Z,21.10
2022-11-26T04:36:01.358Z,21.60
2022-11-26T04:38:29.951Z,21.90
2022-11-26T04:40:58.250Z,21.20
2022-11-26T04:43:26.629Z,21.20
2022-11-26T04:45:55.052Z,20.30
2022-11-26T04:48:23.532Z,21.10
2022-11-26T04:50:51.796Z,22.30
2022-11-26T04:53:22.027Z,19.40
2022-11-26T04:55:51.767Z,22.10
2022-11-26T04:58:20.682Z,19.50
2022-11-26T05:00:51.223Z,21.50
2022-11-26T05:03:20.196Z,20.90
2022-11-26T05:05:48.519Z,20.80
2022-11-26T05:08:16.828Z,21.00
2022-11-26T05:10:45.147Z,19.60
2022-11-26T05:13:13.480Z,19.90
2022-11-26T05:15:41.858Z,19.90
2022-11-26T05:18:10.101Z,19.20
2022-11-26T05:20:38.428Z,20.30
2022-11-26T05:23:06.714Z,21.20
2022-11-26T05:25:35.222Z,22.50
2022-11-26T05:28:03.579Z,22.40
2022-11-26T05:30:32.316Z,22.60
2022-11-26T05:33:00.789Z,22.10
2022-11-26T05:35:29.106Z,22.80
2022-11-26T05:37:57.358Z,21.20
2022-11-26T05:40:25.626Z,21.00
2022-11-26T05:42:53.916Z,21.90
2022-11-26T05:45:22.326Z,23.10
2022-11-26T05:47:50.663Z,26.80
2022-11-26T05:50:19.179Z,25.20
2022-11-26T05:52:47.420Z,24.30
2022-11-26T05:55:16.952Z,22.50
2022-11-26T05:57:45.273Z,24.20
2022-11-26T06:00:14.319Z,22.50
2022-11-26T06:02:43.347Z,20.70
2022-11-26T06:05:12.221Z,20.60
2022-11-26T06:07:44.557Z,19.10
2022-11-26T06:10:14.430Z,19.90
2022-11-26T06:12:42.639Z,20.40
2022-11-26T06:15:11.140Z,21.10
2022-11-26T06:17:39.482Z,21.80
2022-11-26T06:20:08.329Z,21.50
2022-11-26T06:22:41.373Z,21.50
2022-11-26T06:25:11.868Z,21.00
2022-11-26T06:27:53.237Z,24.20
2022-11-26T06:30:21.819Z,23.10
2022-11-26T06:32:50.385Z,23.30
2022-11-26T06:35:18.882Z,23.60
2022-11-26T06:37:48.795Z,23.20
2022-11-26T06:40:20.306Z,21.20
2022-11-26T06:42:53.371Z,22.90
2022-11-26T06:45:23.435Z,22.40
2022-11-26T06:47:52.411Z,23.20
2022-11-26T06:50:22.661Z,22.50
2022-11-26T06:52:52.863Z,23.70
2022-11-26T06:55:21.946Z,25.70
2022-11-26T06:57:51.609Z,49.10
2022-11-26T07:00:20.301Z,52.80
2022-11-26T07:02:48.887Z,37.40
2022-11-26T07:05:17.251Z,31.60
2022-11-26T07:07:45.651Z,27.20
2022-11-26T07:10:14.179Z,24.80
2022-11-26T07:12:42.468Z,27.90
2022-11-26T07:15:11.176Z,32.40
2022-11-26T07:17:39.528Z,25.60
2022-11-26T07:20:12.660Z,24.70
2022-11-26T07:22:43.709Z,28.90
2022-11-26T07:25:12.923Z,30.20
2022-11-26T07:27:41.603Z,29.20
2022-11-26T07:30:10.396Z,29.10
2022-11-26T07:32:39.220Z,28.00
2022-11-26T07:35:08.098Z,28.70
2022-11-26T07:37:36.759Z,28.80
2022-11-26T07:40:09.195Z,37.40
2022-11-26T07:42:38.678Z,37.50
2022-11-26T07:45:07.566Z,33.50
2022-11-26T07:47:38.838Z,31.50
2022-11-26T07:50:08.269Z,31.00
2022-11-26T07:52:36.869Z,33.10
2022-11-26T07:55:09.583Z,32.10
2022-11-26T07:57:40.868Z,30.10
2022-11-26T08:00:15.255Z,31.00
2022-11-26T08:02:44.962Z,36.30
2022-11-26T08:05:18.333Z,39.60
2022-11-26T08:07:46.659Z,32.90
2022-11-26T08:10:15.016Z,33.90
2022-11-26T08:12:48.900Z,32.30
2022-11-26T08:15:21.909Z,31.40
2022-11-26T08:17:54.635Z,30.70
2022-11-26T08:20:28.669Z,29.30
2022-11-26T08:22:57.567Z,30.70
2022-11-26T08:25:25.984Z,34.30
2022-11-26T08:27:54.490Z,29.60
2022-11-26T08:30:34.184Z,29.40
2022-11-26T08:33:02.452Z,29.20
2022-11-26T08:35:59.413Z,28.50
2022-11-26T08:38:23.786Z,29.00
2022-11-26T08:40:52.722Z,26.20
2022-11-26T08:43:39.598Z,27.00
2022-11-26T08:46:21.348Z,27.50
2022-11-26T08:48:55.230Z,25.40
2022-11-26T08:51:25.252Z,23.60
2022-11-26T08:53:56.403Z,23.10
2022-11-26T08:56:29.604Z,23.80
2022-11-26T08:58:58.339Z,23.80
2022-11-26T09:01:34.367Z,24.10
2022-11-26T09:04:04.543Z,23.30
2022-11-26T09:06:41.192Z,25.00
2022-11-26T09:09:19.407Z,22.60
2022-11-26T09:11:59.435Z,23.40
2022-11-26T09:14:36.082Z,20.80
2022-11-26T09:17:12.633Z,21.10
2022-11-26T09:19:41.205Z,30.50
2022-11-26T09:22:09.995Z,31.50
2022-11-26T09:24:38.522Z,33.30
2022-11-26T09:27:08.248Z,33.40
2022-11-26T09:29:41.704Z,34.10
2022-11-26T09:32:29.604Z,29.10
2022-11-26T09:35:00.848Z,26.40
2022-11-26T09:37:31.761Z,23.50
2022-11-26T09:40:00.564Z,19.90
2022-11-26T09:42:46.833Z,20.20
2022-11-26T09:45:49.852Z,19.80
2022-11-26T09:48:23.336Z,17.80
2022-11-26T09:51:00.221Z,18.90
2022-11-26T09:53:36.649Z,21.20
2022-11-26T09:56:11.696Z,20.50
2022-11-26T09:58:50.584Z,20.50
2022-11-26T10:01:24.586Z,21.40
2022-11-26T10:03:53.075Z,20.30
2022-11-26T10:06:42.755Z,22.50
2022-11-26T10:09:44.379Z,21.80
2022-11-26T10:13:03.422Z,21.00
2022-11-26T10:15:39.135Z,23.00
2022-11-26T10:18:28.491Z,21.20
2022-11-26T10:21:11.479Z,21.40
2022-11-26T10:24:00.821Z,24.10
2022-11-26T10:26:36.246Z,23.30
2022-11-26T10:29:24.850Z,21.40
2022-11-26T10:32:22.141Z,22.30
2022-11-26T10:34:53.337Z,20.80
2022-11-26T10:37:24.644Z,23.20
2022-11-26T10:40:17.614Z,20.70
2022-11-26T10:43:10.884Z,20.30
2022-11-26T10:45:43.083Z,20.70
2022-11-26T10:48:16.034Z,21.90
2022-11-26T10:50:55.202Z,22.50
2022-11-26T10:53:25.244Z,21.80
2022-11-26T10:56:05.960Z,25.90
2022-11-26T10:58:41.674Z,24.60
2022-11-26T11:01:15.569Z,23.50
2022-11-26T11:04:09.343Z,21.00
2022-11-26T11:06:42.866Z,20.80
2022-11-26T11:09:31.151Z,21.50
2022-11-26T11:12:18.156Z,19.40
2022-11-26T11:14:47.969Z,20.90
2022-11-26T11:17:23.166Z,19.80
2022-11-26T11:19:51.727Z,19.10
2022-11-26T11:22:21.588Z,18.20
2022-11-26T11:24:50.579Z,19.50
2022-11-26T11:27:26.614Z,19.70
2022-11-26T11:30:01.492Z,18.90
2022-11-26T11:32:36.936Z,19.60
2022-11-26T11:35:33.009Z,22.60
2022-11-26T11:40:45.549Z,18.10
2022-11-26T11:43:18.481Z,19.20
2022-11-26T11:46:04.443Z,19.20
2022-11-26T11:48:47.092Z,19.20
2022-11-26T11:51:24.708Z,19.10
2022-11-26T11:54:00.602Z,19.40
2022-11-26T11:56:35.659Z,18.10
2022-11-26T11:59:26.505Z,18.60
2022-11-26T12:02:23.044Z,19.30
2022-11-26T12:05:06.270Z,18.30
2022-11-26T12:07:58.706Z,19.00
2022-11-26T12:11:00.695Z,18.70
2022-11-26T12:13:31.964Z,17.50
2022-11-26T12:16:05.423Z,17.70
2022-11-26T12:18:49.139Z,18.60
2022-11-26T12:21:40.901Z,18.30
2022-11-26T12:24:16.464Z,18.10
2022-11-26T12:26:55.653Z,20.20
2022-11-26T12:29:40.460Z,19.20
2022-11-26T12:32:19.520Z,19.20
2022-11-26T12:34:52.847Z,19.60
2022-11-26T12:37:28.460Z,17.90
2022-11-26T12:40:00.553Z,22.20
2022-11-26T12:42:44.145Z,22.20
2022-11-26T12:48:25.794Z,20.80
2022-11-26T12:51:01.889Z,22.40
2022-11-26T12:54:23.372Z,21.20
2022-11-26T12:57:23.951Z,23.10
2022-11-26T13:00:01.199Z,23.50
2022-11-26T13:02:36.807Z,21.40
2022-11-26T13:05:06.031Z,20.50
2022-11-26T13:07:53.331Z,20.80
2022-11-26T13:10:27.579Z,20.80
2022-11-26T13:13:05.220Z,19.70
2022-11-26T13:15:42.216Z,20.70
2022-11-26T13:18:21.522Z,21.10
2022-11-26T13:21:05.693Z,22.80
2022-11-26T13:24:18.561Z,22.90
2022-11-26T13:27:09.397Z,23.10
2022-11-26T13:30:11.824Z,23.00
2022-11-26T13:33:08.529Z,22.20
2022-11-26T13:36:04.778Z,23.80
2022-11-26T13:38:49.394Z,24.30
2022-11-26T13:41:36.583Z,27.20
2022-11-26T13:44:51.842Z,24.10
2022-11-26T13:47:52.506Z,27.20
2022-11-26T13:50:59.690Z,26.30
2022-11-26T13:53:53.842Z,27.10
2022-11-26T13:56:25.500Z,27.70
2022-11-26T13:59:07.244Z,28.80
2022-11-26T14:01:40.540Z,27.10
2022-11-26T14:04:24.568Z,26.10
2022-11-26T14:07:05.173Z,25.50
2022-11-26T14:09:42.454Z,27.50
2022-11-26T14:12:12.671Z,27.30
2022-11-26T14:14:42.188Z,26.10
2022-11-26T14:17:13.387Z,27.30
2022-11-26T14:19:41.797Z,24.40
2022-11-26T14:22:16.016Z,26.40
2022-11-26T14:24:50.470Z,29.30
2022-11-26T14:27:26.333Z,28.80
2022-11-26T14:30:06.977Z,28.90
2022-11-26T14:32:43.776Z,34.00
2022-11-26T14:35:21.594Z,32.90
2022-11-26T14:37:55.773Z,29.50
2022-11-26T14:40:32.328Z,30.00
2022-11-26T14:43:28.144Z,29.70
2022-11-26T14:48:34.763Z,29.60
2022-11-26T14:51:07.308Z,31.60
2022-11-26T14:53:36.776Z,34.00
2022-11-26T14:56:05.529Z,31.90
2022-11-26T14:58:40.576Z,31.70
2022-11-26T15:03:54.249Z,33.30
2022-11-26T15:06:27.432Z,31.50
2022-11-26T15:09:10.810Z,32.70
2022-11-26T15:11:44.228Z,33.80
2022-11-26T15:14:25.117Z,32.90
2022-11-26T15:17:06.644Z,33.20
2022-11-26T15:19:38.395Z,35.30
2022-11-26T15:22:28.273Z,36.90
2022-11-26T15:25:03.380Z,36.20
2022-11-26T15:30:19.273Z,43.50
2022-11-26T15:33:13.582Z,38.50
2022-11-26T15:35:45.867Z,35.50
2022-11-26T15:38:18.846Z,37.60
2022-11-26T15:41:15.744Z,38.30
2022-11-26T15:43:49.688Z,38.30
2022-11-26T15:46:28.031Z,38.70
2022-11-26T15:48:59.559Z,39.10
2022-11-26T15:51:37.641Z,37.40
2022-11-26T15:55:11.550Z,35.20
2022-11-26T15:57:41.804Z,32.80
2022-11-26T16:00:38.043Z,34.20
2022-11-26T16:03:38.211Z,35.30
2022-11-26T16:06:08.567Z,36.50
2022-11-26T16:08:39.196Z,36.40
2022-11-26T16:11:20.224Z,40.40
2022-11-26T16:13:48.472Z,39.10
2022-11-26T16:16:19.941Z,43.70
2022-11-26T16:19:01.938Z,44.70
2022-11-26T16:21:33.089Z,40.60
2022-11-26T16:24:22.028Z,43.50
2022-11-26T16:26:53.674Z,44.90
2022-11-26T16:29:22.017Z,41.30
2022-11-26T16:31:50.369Z,44.00
2022-11-26T16:34:18.992Z,40.90
2022-11-26T16:36:47.924Z,42.50
2022-11-26T16:39:17.380Z,41.20
2022-11-26T16:41:45.655Z,40.90
2022-11-26T16:44:13.901Z,41.90
2022-11-26T16:46:42.292Z,45.10
2022-11-26T16:49:11.083Z,43.00
2022-11-26T16:51:39.311Z,42.70
2022-11-26T16:54:07.544Z,42.60
2022-11-26T16:56:38.492Z,46.40
2022-11-26T16:59:18.542Z,44.10
2022-11-26T17:01:46.958Z,43.90
2022-11-26T17:04:15.535Z,45.50
2022-11-26T17:06:43.881Z,43.30
2022-11-26T17:09:19.830Z,47.80
2022-11-26T17:11:48.327Z,46.30
2022-11-26T17:14:16.681Z,45.30
2022-11-26T17:16:45.043Z,47.50
2022-11-26T17:19:16.520Z,47.70
2022-11-26T17:21:44.842Z,48.50
2022-11-26T17:24:14.692Z,47.60
2022-11-26T17:26:45.200Z,44.70
2022-11-26T17:29:13.699Z,44.90
2022-11-26T17:31:44.435Z,42.60
2022-11-26T17:34:12.700Z,45.90
2022-11-26T17:36:41.012Z,44.30
2022-11-26T17:39:11.109Z,41.00
2022-11-26T17:41:39.460Z,39.30
2022-11-26T17:44:07.706Z,40.00
2022-11-26T17:47:01.018Z,38.30
2022-11-26T17:49:24.316Z,39.70
2022-11-26T17:51:52.558Z,38.10
2022-11-26T17:54:20.851Z,35.50
2022-11-26T17:56:50.444Z,41.30
2022-11-26T17:59:21.831Z,39.60
2022-11-26T18:01:52.175Z,39.70
2022-11-26T18:04:23.800Z,39.70
2022-11-26T18:06:58.050Z,39.70
2022-11-26T18:09:26.544Z,37.60
2022-11-26T18:11:56.264Z,35.00
2022-11-26T18:14:28.238Z,38.80
2022-11-26T18:16:56.959Z,33.30
2022-11-26T18:19:25.979Z,34.60
2022-11-26T18:21:54.824Z,35.10
2022-11-26T18:24:23.472Z,33.70
2022-11-26T18:26:56.344Z,33.90
2022-11-26T18:29:26.745Z,36.30
2022-11-26T18:31:54.995Z,34.60
2022-11-26T18:34:23.708Z,33.80
2022-11-26T18:36:53.941Z,32.60
2022-11-26T18:39:22.694Z,31.40
2022-11-26T18:41:54.516Z,31.70
2022-11-26T18:44:26.062Z,33.90
2022-11-26T18:46:59.151Z,34.50
2022-11-26T18:49:28.268Z,33.40
2022-11-26T18:51:56.644Z,35.00
2022-11-26T18:54:28.925Z,34.10
2022-11-26T18:56:57.361Z,33.60
2022-11-26T18:59:28.706Z,33.70
2022-11-26T19:02:04.545Z,35.10
2022-11-26T19:04:33.151Z,33.70
2022-11-26T19:07:02.787Z,33.90
2022-11-26T19:09:31.146Z,35.40
2022-11-26T19:11:59.719Z,36.70
2022-11-26T19:14:28.062Z,39.00
2022-11-26T19:16:56.383Z,34.10
2022-11-26T19:19:24.733Z,34.50
2022-11-26T19:21:59.355Z,34.60
2022-11-26T19:24:30.807Z,33.90
2022-11-26T19:26:59.793Z,35.90
2022-11-26T19:29:28.501Z,38.40
2022-11-26T19:31:56.871Z,37.10
2022-11-26T19:34:27.244Z,37.40
2022-11-26T19:36:57.823Z,34.80
2022-11-26T19:39:26.871Z,35.30
2022-11-26T19:42:01.599Z,38.10
2022-11-26T19:44:40.766Z,44.70
2022-11-26T19:47:09.546Z,48.20
2022-11-26T19:49:38.460Z,45.70
2022-11-26T19:52:09.949Z,43.90
2022-11-26T19:54:40.303Z,42.00
2022-11-26T19:57:12.447Z,41.50
2022-11-26T19:59:50.694Z,42.10
2022-11-26T20:02:21.079Z,39.90
2022-11-26T20:05:00.891Z,41.10
2022-11-26T20:07:33.214Z,36.70
2022-11-26T20:10:03.130Z,38.70
2022-11-26T20:12:31.898Z,47.60
2022-11-26T20:15:15.060Z,55.50
2022-11-26T20:17:52.870Z,44.10
2022-11-26T20:20:25.233Z,39.80
2022-11-26T20:22:56.986Z,39.90
2022-11-26T20:25:39.604Z,38.00
2022-11-26T20:28:09.641Z,37.40
2022-11-26T20:30:39.523Z,37.80
2022-11-26T20:33:09.008Z,36.50
2022-11-26T20:35:41.004Z,38.50
2022-11-26T20:38:14.549Z,39.50
2022-11-26T20:40:43.340Z,38.00
2022-11-26T20:43:12.032Z,40.90
2022-11-26T20:46:01.333Z,38.90
2022-11-26T20:48:31.147Z,41.70
2022-11-26T20:51:04.425Z,43.00
2022-11-26T20:53:35.257Z,39.50
2022-11-26T20:56:04.959Z,39.00
2022-11-26T20:58:34.953Z,36.60
2022-11-26T21:01:25.742Z,36.90
2022-11-26T21:03:55.585Z,37.90
2022-11-26T21:06:30.884Z,34.10
2022-11-26T21:09:01.426Z,34.90
2022-11-26T21:11:30.541Z,31.30
2022-11-26T21:14:00.115Z,32.70
2022-11-26T21:16:36.878Z,33.00
2022-11-26T21:19:13.019Z,26.80
2022-11-26T21:21:44.027Z,28.70
2022-11-26T21:24:15.834Z,31.90
2022-11-26T21:26:44.928Z,31.20
2022-11-26T21:29:13.926Z,27.90
2022-11-26T21:31:45.175Z,26.50
2022-11-26T21:34:15.405Z,31.00
2022-11-26T21:36:44.462Z,35.10
2022-11-26T21:39:17.932Z,44.70
2022-11-26T21:41:54.833Z,37.10
2022-11-26T21:44:29.236Z,38.00
2022-11-26T21:46:58.084Z,37.20
2022-11-26T21:49:34.978Z,36.90
2022-11-26T21:52:06.965Z,31.80
2022-11-26T21:54:40.402Z,28.00
2022-11-26T21:57:19.452Z,30.00
2022-11-26T21:59:50.163Z,25.00
2022-11-26T22:02:23.306Z,27.90
2022-11-26T22:04:52.169Z,28.60
2022-11-26T22:07:21.262Z,25.30
2022-11-26T22:09:50.393Z,28.60
2022-11-26T22:12:22.358Z,26.00
2022-11-26T22:14:51.717Z,28.70
2022-11-26T22:17:20.788Z,31.80
2022-11-26T22:19:49.112Z,28.10
2022-11-26T22:22:20.730Z,24.10
2022-11-26T22:24:54.219Z,25.10
2022-11-26T22:27:26.555Z,22.80
2022-11-26T22:30:00.088Z,24.50
2022-11-26T22:32:30.796Z,23.30
2022-11-26T22:34:59.188Z,23.70
2022-11-26T22:37:27.884Z,25.20
2022-11-26T22:40:01.527Z,23.60
2022-11-26T22:42:36.764Z,21.90
2022-11-26T22:45:05.608Z,21.20
2022-11-26T22:47:36.340Z,23.50
2022-11-26T22:50:11.583Z,22.40
2022-11-26T22:52:42.436Z,26.60
2022-11-26T22:55:14.440Z,22.20
2022-11-26T22:57:45.936Z,23.30
2022-11-26T23:00:46.700Z,21.40
2022-11-26T23:03:22.727Z,21.60
2022-11-26T23:05:54.186Z,20.70
2022-11-26T23:08:22.578Z,19.30
2022-11-26T23:10:50.895Z,21.60
2022-11-26T23:13:19.226Z,19.60
2022-11-26T23:15:48.601Z,23.30
2022-11-26T23:18:18.140Z,20.90
2022-11-26T23:21:03.207Z,22.00
2022-11-26T23:23:31.523Z,23.80
2022-11-26T23:26:02.754Z,21.80
2022-11-26T23:28:32.874Z,21.80
2022-11-26T23:31:05.325Z,20.60
2022-11-26T23:33:39.973Z,20.30
2022-11-26T23:36:09.370Z,20.30
2022-11-26T23:38:39.944Z,21.20
2022-11-26T23:41:09.375Z,20.00
2022-11-26T23:43:41.863Z,21.40
2022-11-26T23:46:19.903Z,17.40
2022-11-26T23:48:53.962Z,19.20
2022-11-26T23:53:59.404Z,18.70
2022-11-26T23:56:34.230Z,18.90
2022-11-26T23:59:08.888Z,20.00
